Terminal Aerodrome Forecast
Issued by NWS St Louis, MO

Home | Current Version | Previous Version | Text Only | Print | Product List | Glossary On
Versions: 1 2 3 4 5 6 7 8 9 10 11 12 13 14 15 16 17 18 19 20 21 22 23 24 25 26
000
FTUS43 KLSX 231700 RRA
TAFSTL
TAF
KSTL 231741Z 2318/2424 19007KT P6SM SCT150 BKN250
     FM232000 18005KT P6SM BKN050 BKN200
     FM240400 22004KT P6SM BKN030
      TEMPO 2409/2413 5SM BR BKN015
     FM241500 20005KT P6SM FEW015 SCT030=

USA.gov is the U.S. government's official web portal to all federal, state and local government web resources and services.